Time;durP1;ratioP1;P1;durP2;ratioP2;P2;SDS_P1;SDS_P2;PMS_P1;PMS_P2;Temp;Humidity;BMP_temperature;BMP_pressure;BME280_temperature;BME280_humidity;BME280_pressure;Samples;Min_cycle;Max_cycle;Signal;HPM_P1;HPM_P2
2022/04/04 03:01:14;;;;;;;1.15;0.82;;;13.20;48.00;;;;;;5546919;23;46345;-56
2022/04/04 03:03:40;;;;;;;0.80;0.80;;;13.20;48.00;;;;;;4936779;28;46590;-56
2022/04/04 03:06:06;;;;;;;1.48;1.10;;;13.10;48.00;;;;;;4946596;28;45942;-54
2022/04/04 03:08:32;;;;;;;1.25;0.90;;;13.10;47.90;;;;;;4954432;28;46120;-53
2022/04/04 03:10:57;;;;;;;1.40;0.80;;;13.10;47.90;;;;;;4946400;28;46020;-56
2022/04/04 03:13:23;;;;;;;0.98;0.80;;;13.10;48.00;;;;;;4934364;28;46252;-56
2022/04/04 03:15:48;;;;;;;0.93;0.88;;;13.10;47.90;;;;;;4942139;28;46197;-55
2022/04/04 03:18:14;;;;;;;0.75;0.75;;;13.10;47.90;;;;;;4953231;28;46034;-55
2022/04/04 03:20:40;;;;;;;1.10;0.85;;;13.10;47.90;;;;;;4943726;28;45780;-56
2022/04/04 03:23:06;;;;;;;1.02;0.85;;;13.10;47.90;;;;;;4943050;28;44912;-55
2022/04/04 03:25:32;;;;;;;1.40;0.80;;;13.10;47.90;;;;;;4944192;28;47129;-57
2022/04/04 03:27:57;;;;;;;1.05;0.82;;;13.10;47.90;;;;;;4943143;28;45544;-54
2022/04/04 03:30:27;;;;;;;0.77;0.70;;;13.10;47.90;;;;;;4935270;28;45530;-53
2022/04/04 03:32:55;;;;;;;0.70;0.70;;;13.10;47.90;;;;;;4935626;28;45281;-53
2022/04/04 03:35:21;;;;;;;0.80;0.70;;;13.10;47.90;;;;;;4938020;28;46201;-53
2022/04/04 03:37:49;;;;;;;0.77;0.70;;;13.10;48.00;;;;;;4935556;28;45193;-55
2022/04/04 03:40:16;;;;;;;1.67;0.93;;;13.10;48.00;;;;;;4943406;28;45075;-55
2022/04/04 03:42:42;;;;;;;1.17;0.73;;;13.10;48.60;;;;;;4930166;28;45444;-56
2022/04/04 03:45:08;;;;;;;0.80;0.80;;;13.10;47.90;;;;;;4931820;28;46962;-53
2022/04/04 03:47:34;;;;;;;1.13;0.90;;;13.10;48.50;;;;;;4934019;28;45433;-53
2022/04/04 03:50:00;;;;;;;0.75;0.70;;;13.00;47.90;;;;;;4923011;28;45231;-54
2022/04/04 03:52:26;;;;;;;1.25;0.80;;;13.10;48.00;;;;;;4933286;28;45290;-55
2022/04/04 03:54:52;;;;;;;0.98;0.80;;;13.10;47.90;;;;;;4927496;28;45739;-54
2022/04/04 03:57:17;;;;;;;1.00;0.90;;;13.10;48.00;;;;;;4923293;28;45762;-55
2022/04/04 03:59:44;;;;;;;1.00;0.80;;;13.00;48.00;;;;;;4925974;28;45121;-54
2022/04/04 04:02:11;;;;;;;1.08;0.88;;;13.00;47.90;;;;;;4922896;28;45271;-54
2022/04/04 04:04:37;;;;;;;1.00;0.70;;;13.00;47.90;;;;;;4934184;28;46036;-54
2022/04/04 04:07:03;;;;;;;0.82;0.75;;;13.00;47.90;;;;;;4934175;28;44783;-53
2022/04/04 04:09:29;;;;;;;1.35;0.98;;;13.00;47.90;;;;;;4934367;28;45125;-53
2022/04/04 04:11:55;;;;;;;1.27;0.80;;;13.00;48.00;;;;;;4931241;28;44885;-54
2022/04/04 04:14:21;;;;;;;1.25;0.85;;;13.00;48.00;;;;;;4931905;28;46207;-56
2022/04/04 04:16:47;;;;;;;0.80;0.70;;;13.00;48.00;;;;;;4925869;28;46372;-56
2022/04/04 04:20:19;;;;;;;1.02;0.80;;;13.00;48.00;;;;;;4930998;28;45327;-55
2022/04/04 04:21:58;;;;;;;1.02;0.90;;;13.00;48.20;;;;;;4928929;28;45462;-56
2022/04/04 04:24:24;;;;;;;1.25;1.00;;;13.00;48.00;;;;;;4925291;28;46268;-55
2022/04/04 04:26:50;;;;;;;0.80;0.80;;;13.00;48.00;;;;;;4930090;28;45595;-55
2022/04/04 04:29:16;;;;;;;0.85;0.80;;;13.00;48.00;;;;;;4932087;28;45239;-54
2022/04/04 04:31:42;;;;;;;0.90;0.80;;;13.00;48.00;;;;;;4923483;28;45391;-54
2022/04/04 04:34:08;;;;;;;1.00;0.70;;;13.00;48.00;;;;;;4934766;28;46046;-53
2022/04/04 04:36:33;;;;;;;1.42;0.98;;;12.90;47.90;;;;;;4937840;28;45535;-56
2022/04/04 04:38:59;;;;;;;0.73;0.70;;;12.90;48.60;;;;;;4927720;28;45305;-58
2022/04/04 04:41:25;;;;;;;0.85;0.80;;;12.90;48.00;;;;;;4931979;28;45570;-56
2022/04/04 04:43:51;;;;;;;1.70;1.00;;;12.90;48.00;;;;;;4931683;28;45966;-55
2022/04/04 04:46:16;;;;;;;1.95;1.48;;;12.90;48.00;;;;;;4929758;28;45006;-56
2022/04/04 04:48:42;;;;;;;1.13;0.90;;;12.90;48.00;;;;;;4926802;28;45051;-53
2022/04/04 04:51:08;;;;;;;1.27;0.63;;;12.90;48.00;;;;;;4929776;28;44761;-56
2022/04/04 04:53:34;;;;;;;0.88;0.80;;;12.90;48.00;;;;;;4929460;28;45349;-56
2022/04/04 04:56:00;;;;;;;1.13;0.80;;;12.90;47.90;;;;;;4934637;28;45406;-54
2022/04/04 04:58:25;;;;;;;1.77;0.93;;;12.90;48.00;;;;;;4940948;28;45410;-55
2022/04/04 05:00:51;;;;;;;0.90;0.65;;;12.90;48.00;;;;;;4925282;28;45313;-56
2022/04/04 05:03:26;;;;;;;1.13;0.82;;;12.90;48.00;;;;;;4935253;28;45863;-53
2022/04/04 05:05:51;;;;;;;1.30;0.80;;;12.90;48.00;;;;;;4933408;28;45219;-54
2022/04/04 05:08:17;;;;;;;0.77;0.60;;;12.90;47.90;;;;;;4930875;28;44706;-57
2022/04/04 05:10:43;;;;;;;0.98;0.80;;;12.90;48.00;;;;;;4928002;28;46071;-57
2022/04/04 05:13:08;;;;;;;1.40;1.00;;;12.90;48.00;;;;;;4924686;28;46181;-54
2022/04/04 05:15:34;;;;;;;2.03;0.90;;;12.90;48.00;;;;;;4929806;28;45633;-56
2022/04/04 05:17:59;;;;;;;1.10;0.70;;;12.90;48.00;;;;;;4924027;28;45557;-53
2022/04/04 05:20:25;;;;;;;1.42;1.02;;;12.90;48.00;;;;;;4924687;28;45182;-54
2022/04/04 05:22:51;;;;;;;1.20;0.88;;;12.80;48.00;;;;;;4927496;28;46067;-55
2022/04/04 05:25:16;;;;;;;0.90;0.60;;;12.90;48.00;;;;;;4921084;28;45134;-55
2022/04/04 05:27:42;;;;;;;0.85;0.80;;;12.90;48.00;;;;;;4928742;28;45223;-57
2022/04/04 05:30:08;;;;;;;2.03;0.95;;;12.90;48.00;;;;;;4927417;28;46130;-53
2022/04/04 05:32:34;;;;;;;1.00;0.88;;;12.90;48.00;;;;;;4920865;28;46027;-57
2022/04/04 05:35:01;;;;;;;0.90;0.80;;;12.80;48.00;;;;;;4923683;28;45751;-52
2022/04/04 05:37:26;;;;;;;1.13;0.88;;;12.90;48.00;;;;;;4928789;28;45510;-55
2022/04/04 05:39:52;;;;;;;1.13;0.82;;;12.90;48.00;;;;;;4928806;28;45303;-54
2022/04/04 05:42:17;;;;;;;1.27;1.00;;;12.90;47.90;;;;;;4927553;28;46287;-55
2022/04/04 05:44:43;;;;;;;1.35;0.90;;;12.90;47.90;;;;;;4929849;28;45776;-55
2022/04/04 05:47:13;;;;;;;1.10;0.80;;;12.90;47.90;;;;;;4930390;28;46173;-55
2022/04/04 05:49:40;;;;;;;0.80;0.70;;;12.90;48.40;;;;;;4928553;28;47284;-55
2022/04/04 05:52:06;;;;;;;1.02;0.90;;;13.10;47.50;;;;;;4929135;28;47043;-55
2022/04/04 05:54:31;;;;;;;;;;;13.20;47.10;;;;;;4928975;28;45212;-56
2022/04/04 05:56:57;;;;;;;1.40;0.77;;;13.10;47.30;;;;;;4933020;28;46024;-56
2022/04/04 05:59:23;;;;;;;1.25;0.80;;;13.00;47.50;;;;;;4933850;28;45514;-53
2022/04/04 06:01:48;;;;;;;0.70;0.70;;;13.10;47.50;;;;;;4926289;28;46024;-56
2022/04/04 06:04:14;;;;;;;1.05;0.93;;;13.40;47.40;;;;;;4930498;28;45445;-57
2022/04/04 06:06:40;;;;;;;0.60;0.60;;;13.80;46.70;;;;;;4930006;28;45565;-56
2022/04/04 06:09:05;;;;;;;1.05;0.80;;;14.00;46.00;;;;;;4929166;28;45213;-57
2022/04/04 06:11:31;;;;;;;1.95;0.80;;;14.40;45.60;;;;;;4938950;28;46224;-57
2022/04/04 06:13:57;;;;;;;1.15;0.80;;;14.60;45.30;;;;;;4932853;28;44706;-54
2022/04/04 06:16:23;;;;;;;1.05;0.95;;;14.60;45.00;;;;;;4929582;28;45526;-56
2022/04/04 06:18:50;;;;;;;0.90;0.80;;;14.80;45.00;;;;;;4936017;28;45435;-57
2022/04/04 06:21:16;;;;;;;0.77;0.73;;;14.90;44.90;;;;;;4933991;28;47156;-56
2022/04/04 06:23:41;;;;;;;1.13;0.85;;;15.00;45.30;;;;;;4932361;28;45261;-56
2022/04/04 06:26:07;;;;;;;1.42;0.70;;;15.00;44.80;;;;;;4928938;28;45482;-55
2022/04/04 06:28:34;;;;;;;0.90;0.70;;;14.90;45.00;;;;;;4928789;28;45221;-55
2022/04/04 06:31:01;;;;;;;0.77;0.63;;;14.90;45.20;;;;;;4925505;28;44925;-56
2022/04/04 06:33:27;;;;;;;0.70;0.60;;;15.00;45.20;;;;;;4923415;28;45501;-58
2022/04/04 06:35:53;;;;;;;1.02;0.60;;;15.00;45.20;;;;;;4927309;28;45707;-59
2022/04/04 06:38:19;;;;;;;2.83;0.60;;;15.10;45.20;;;;;;4925871;28;45295;-57
2022/04/04 06:40:45;;;;;;;1.38;0.70;;;15.20;45.20;;;;;;4908593;28;45505;-58
2022/04/04 06:43:11;;;;;;;2.88;0.50;;;15.30;45.20;;;;;;4928167;28;45380;-58
2022/04/04 06:45:36;;;;;;;0.50;0.50;;;15.40;45.10;;;;;;4936319;28;45576;-57
2022/04/04 06:48:02;;;;;;;0.57;0.57;;;15.50;45.60;;;;;;4929009;28;45040;-58
2022/04/04 06:50:30;;;;;;;0.40;0.40;;;15.60;45.00;;;;;;4930126;28;46240;-57
2022/04/04 06:52:56;;;;;;;0.47;0.47;;;15.70;44.90;;;;;;4925443;28;45196;-58
2022/04/04 06:55:21;;;;;;;1.00;0.50;;;15.90;44.80;;;;;;4934544;28;45417;-59
2022/04/04 06:57:47;;;;;;;0.60;0.40;;;16.00;44.70;;;;;;4935032;28;45681;-56
2022/04/04 07:00:16;;;;;;;0.55;0.50;;;16.10;44.60;;;;;;4931971;28;45906;-56
2022/04/04 07:02:41;;;;;;;0.55;0.55;;;16.20;44.50;;;;;;4921593;28;44760;-58
2022/04/04 07:05:08;;;;;;;2.28;0.43;;;16.30;44.40;;;;;;4930725;28;45696;-57
2022/04/04 07:07:34;;;;;;;1.35;0.60;;;16.40;44.30;;;;;;4933041;28;44872;-59
2022/04/04 07:10:00;;;;;;;1.00;0.50;;;16.50;44.20;;;;;;4931070;28;45888;-56
2022/04/04 07:12:27;;;;;;;1.67;0.60;;;16.70;44.10;;;;;;4930056;28;44924;-57
2022/04/04 07:14:53;;;;;;;1.23;0.32;;;16.80;44.00;;;;;;4931253;28;45404;-58
2022/04/04 07:17:19;;;;;;;0.85;0.50;;;16.90;43.90;;;;;;4932236;28;44716;-57
2022/04/04 07:19:45;;;;;;;0.52;0.40;;;17.00;43.90;;;;;;4935020;28;46089;-59
2022/04/04 07:22:11;;;;;;;0.60;0.50;;;17.10;43.70;;;;;;4933004;28;44737;-57
2022/04/04 07:24:37;;;;;;;0.50;0.40;;;17.20;43.60;;;;;;4933778;28;44988;-56
2022/04/04 07:27:03;;;;;;;0.57;0.50;;;17.30;43.50;;;;;;4935475;28;45374;-58
2022/04/04 07:29:29;;;;;;;0.70;0.50;;;17.40;43.40;;;;;;4936212;28;46056;-58
2022/04/04 07:31:55;;;;;;;0.82;0.47;;;17.50;43.40;;;;;;4926951;28;45173;-57
2022/04/04 07:34:20;;;;;;;4.25;0.50;;;17.60;43.30;;;;;;4926985;28;45501;-58
2022/04/04 07:36:46;;;;;;;1.60;0.50;;;17.70;43.20;;;;;;4925603;28;47185;-59
2022/04/04 07:39:12;;;;;;;0.35;0.35;;;17.80;43.10;;;;;;4927341;28;45445;-56
2022/04/04 07:41:37;;;;;;;1.95;0.50;;;17.90;43.00;;;;;;4923004;28;46157;-58
2022/04/04 07:44:03;;;;;;;1.73;0.50;;;18.00;42.90;;;;;;4930518;28;45481;-58
2022/04/04 07:46:31;;;;;;;0.50;0.47;;;18.10;42.90;;;;;;4926821;28;45374;-55
2022/04/04 07:48:57;;;;;;;0.50;0.40;;;18.20;42.70;;;;;;4932870;28;46345;-60
2022/04/04 07:51:23;;;;;;;0.90;0.47;;;18.30;42.80;;;;;;4929724;28;45612;-59
2022/04/04 07:53:48;;;;;;;2.47;0.40;;;18.40;42.70;;;;;;4930456;28;45260;-57
2022/04/04 07:56:14;;;;;;;0.38;0.38;;;18.50;42.60;;;;;;4929113;28;45484;-59
2022/04/04 07:58:40;;;;;;;0.50;0.50;;;18.50;42.50;;;;;;4934465;28;46675;-58
2022/04/04 08:01:05;;;;;;;0.40;0.40;;;18.70;42.50;;;;;;4917001;28;44733;-60
2022/04/04 08:03:31;;;;;;;0.52;0.38;;;18.70;42.40;;;;;;4918551;28;44860;-57
2022/04/04 08:05:56;;;;;;;1.55;0.52;;;18.80;42.30;;;;;;4926904;28;45266;-58
2022/04/04 08:08:22;;;;;;;0.55;0.40;;;18.90;42.30;;;;;;4929293;28;45807;-59
2022/04/04 08:10:48;;;;;;;0.43;0.30;;;19.00;42.10;;;;;;4922551;28;45001;-60
2022/04/04 08:13:13;;;;;;;0.68;0.43;;;19.10;42.10;;;;;;4926186;28;44945;-57
2022/04/04 08:15:39;;;;;;;1.00;0.30;;;19.20;42.00;;;;;;4934135;28;45717;-59
2022/04/04 08:18:05;;;;;;;0.50;0.30;;;19.30;42.00;;;;;;4930443;28;46230;-59
2022/04/04 08:20:31;;;;;;;0.77;0.50;;;19.40;41.90;;;;;;4931529;28;45280;-57
2022/04/04 08:22:57;;;;;;;2.05;0.40;;;19.50;41.90;;;;;;4930809;28;45587;-58
2022/04/04 08:25:23;;;;;;;0.68;0.38;;;19.50;41.80;;;;;;4933580;28;45322;-60
2022/04/04 08:27:49;;;;;;;0.20;0.20;;;19.60;41.70;;;;;;4929873;28;47132;-59
2022/04/04 08:30:17;;;;;;;0.38;0.30;;;19.70;41.70;;;;;;4928465;28;44747;-59
2022/04/04 08:32:43;;;;;;;0.20;0.20;;;19.80;41.60;;;;;;4927075;28;45589;-58
2022/04/04 08:35:11;;;;;;;1.40;0.68;;;19.90;41.60;;;;;;4929943;28;45148;-58
2022/04/04 08:37:37;;;;;;;0.40;0.40;;;20.00;41.50;;;;;;4932803;28;46357;-56
2022/04/04 08:40:04;;;;;;;0.30;0.30;;;20.00;41.50;;;;;;4930926;28;45509;-59
2022/04/04 08:42:30;;;;;;;0.35;0.22;;;20.10;41.40;;;;;;4938433;28;45540;-58
2022/04/04 08:44:56;;;;;;;0.82;0.57;;;20.20;41.30;;;;;;4942911;28;45205;-57
2022/04/04 08:47:22;;;;;;;1.52;0.40;;;20.20;41.20;;;;;;4940388;28;45168;-59
2022/04/04 08:49:52;;;;;;;0.25;0.20;;;20.30;41.20;;;;;;4937007;28;45297;-59
2022/04/04 08:52:17;;;;;;;0.40;0.30;;;20.40;41.20;;;;;;4931860;28;45523;-60
2022/04/04 08:54:43;;;;;;;0.20;0.20;;;20.40;41.10;;;;;;4922941;28;45610;-58
2022/04/04 08:57:09;;;;;;;0.90;0.50;;;20.50;41.10;;;;;;4932677;28;46173;-61
2022/04/04 08:59:34;;;;;;;0.47;0.32;;;20.60;41.00;;;;;;4929507;28;45088;-61
2022/04/04 09:02:00;;;;;;;0.73;0.40;;;20.70;41.60;;;;;;4912479;28;44933;-61
2022/04/04 09:04:25;;;;;;;0.40;0.30;;;20.70;40.80;;;;;;4923147;28;45008;-60
2022/04/04 09:06:55;;;;;;;0.60;0.30;;;20.80;40.80;;;;;;4936851;28;45469;-58
2022/04/04 09:09:25;;;;;;;0.43;0.40;;;20.90;40.60;;;;;;4934769;28;44890;-60
2022/04/04 09:12:11;;;;;;;1.52;0.40;;;21.00;40.60;;;;;;4930780;28;46216;-61
2022/04/04 09:14:46;;;;;;;0.80;0.50;;;21.00;40.20;;;;;;4923860;28;45047;-59
2022/04/04 09:17:13;;;;;;;0.65;0.20;;;21.10;40.30;;;;;;4928322;28;45929;-59
2022/04/04 09:19:39;;;;;;;0.52;0.40;;;21.10;40.50;;;;;;4923102;28;45517;-60
2022/04/04 09:22:08;;;;;;;0.52;0.30;;;21.20;40.50;;;;;;4927577;28;45318;-60
2022/04/04 09:24:44;;;;;;;0.20;0.20;;;21.30;40.50;;;;;;4931153;28;45416;-58
2022/04/04 09:27:11;;;;;;;0.65;0.38;;;21.30;40.10;;;;;;4922979;28;46147;-60
2022/04/04 09:29:40;;;;;;;0.30;0.30;;;21.40;40.40;;;;;;4927930;28;44836;-58
2022/04/04 09:32:05;;;;;;;1.00;0.20;;;21.50;40.30;;;;;;4921025;28;45253;-61
2022/04/04 09:35:01;;;;;;;0.35;0.30;;;21.60;40.30;;;;;;4934481;28;45487;-58
2022/04/04 09:37:36;;;;;;;0.55;0.30;;;21.60;39.60;;;;;;4931811;28;45978;-61
2022/04/04 09:40:09;;;;;;;0.95;0.30;;;21.70;39.90;;;;;;4929099;28;45535;-61
2022/04/04 09:42:35;;;;;;;0.20;0.20;;;21.70;40.10;;;;;;4926098;28;44830;-60
2022/04/04 09:45:02;;;;;;;0.30;0.30;;;21.80;40.00;;;;;;4937393;28;45254;-61
2022/04/04 09:47:53;;;;;;;0.40;0.40;;;21.90;39.90;;;;;;4934391;28;47237;-61
2022/04/04 09:50:37;;;;;;;0.32;0.30;;;22.00;39.40;;;;;;4940038;28;45207;-60
2022/04/04 09:53:07;;;;;;;0.38;0.38;;;22.00;39.50;;;;;;4932282;28;45478;-58
2022/04/04 09:55:34;;;;;;;0.40;0.40;;;22.00;39.70;;;;;;4931652;28;45438;-61
2022/04/04 09:58:02;;;;;;;0.20;0.20;;;22.10;39.70;;;;;;4929729;28;46185;-59
2022/04/04 10:00:28;;;;;;;1.90;0.40;;;22.20;40.30;;;;;;4927108;28;45486;-59
2022/04/04 10:02:54;;;;;;;;;;;22.20;39.70;;;;;;4952341;28;45559;-58
2022/04/04 10:05:19;;;;;;;;;;;22.30;39.00;;;;;;4946849;28;44845;-58
2022/04/04 10:07:45;;;;;;;;;;;22.30;38.90;;;;;;4952041;28;46095;-57
2022/04/04 10:10:11;;;;;;;;;;;22.40;38.90;;;;;;4938512;28;45579;-59
2022/04/04 10:12:36;;;;;;;;;;;22.50;38.90;;;;;;4948924;28;45579;-58
2022/04/04 10:15:03;;;;;;;;;;;22.50;38.60;;;;;;4954434;28;45282;-60
2022/04/04 10:17:29;;;;;;;;;;;22.60;39.30;;;;;;4957577;28;45313;-58
2022/04/04 10:19:55;;;;;;;;;;;22.60;38.60;;;;;;4958024;28;44646;-59
2022/04/04 10:22:20;;;;;;;;;;;22.70;38.40;;;;;;4951745;28;44752;-59
2022/04/04 10:24:46;;;;;;;;;;;22.70;38.40;;;;;;4955915;28;44994;-58
2022/04/04 10:27:13;;;;;;;;;;;22.70;38.40;;;;;;4953964;28;45969;-59
2022/04/04 10:29:40;;;;;;;;;;;22.80;38.40;;;;;;4954572;28;45278;-59
2022/04/04 10:32:05;;;;;;;;;;;22.80;38.30;;;;;;4954215;28;44768;-59
2022/04/04 10:34:32;;;;;;;;;;;22.90;38.20;;;;;;4953911;28;45483;-59
2022/04/04 10:37:01;;;;;;;;;;;22.90;38.20;;;;;;4952821;28;47257;-58
2022/04/04 10:39:30;;;;;;;;;;;23.00;38.10;;;;;;4951074;28;45346;-59
2022/04/04 10:41:56;;;;;;;;;;;23.00;38.10;;;;;;4952432;28;45353;-58
2022/04/04 10:44:42;;;;;;;;;;;23.10;38.20;;;;;;4953219;28;45891;-57
2022/04/04 10:47:18;;;;;;;;;;;23.10;39.30;;;;;;4951908;28;46181;-58
2022/04/04 10:49:43;;;;;;;;;;;23.20;38.90;;;;;;4950889;28;44853;-59
2022/04/04 10:52:09;;;;;;;;;;;23.20;37.90;;;;;;4950269;28;45246;-58
2022/04/04 10:54:35;;;;;;;;;;;23.30;37.90;;;;;;4957287;28;44760;-59
2022/04/04 10:57:00;;;;;;;;;;;23.40;37.90;;;;;;4949989;28;46125;-58
2022/04/04 10:59:26;;;;;;;;;;;23.40;37.60;;;;;;4953739;28;45297;-58
2022/04/04 11:01:52;;;;;;;;;;;23.40;37.60;;;;;;4956817;28;45301;-60
2022/04/04 11:04:27;;;;;;;;;;;23.50;37.70;;;;;;4954372;28;45437;-59
2022/04/04 11:09:51;;;;;;;;;;;23.60;37.50;;;;;;4952796;28;45244;-58
2022/04/04 11:12:18;;;;;;;;;;;23.60;37.50;;;;;;4953932;28;45297;-56
2022/04/04 11:14:46;;;;;;;;;;;23.70;37.40;;;;;;4954877;28;45325;-59
2022/04/04 11:17:13;;;;;;;;;;;23.80;37.40;;;;;;4958048;28;47243;-59
2022/04/04 11:19:52;;;;;;;;;;;23.80;37.50;;;;;;4956570;28;45474;-59
2022/04/04 11:22:19;;;;;;;;;;;23.80;37.40;;;;;;4949678;28;45232;-58
2022/04/04 11:24:49;;;;;;;;;;;23.90;37.20;;;;;;4951067;28;45266;-58
2022/04/04 11:27:15;;;;;;;;;;;23.90;37.30;;;;;;4953565;28;46273;-56
2022/04/04 11:29:40;;;;;;;;;;;24.00;37.30;;;;;;4955376;28;44996;-58
2022/04/04 11:32:08;;;;;;;;;;;24.00;37.20;;;;;;4953327;28;45452;-60
2022/04/04 11:34:37;;;;;;;;;;;24.10;37.20;;;;;;4956131;28;45377;-61
2022/04/04 11:37:04;;;;;;;;;;;24.10;37.40;;;;;;4952385;28;46195;-61
2022/04/04 11:39:30;;;;;;;;;;;24.10;37.30;;;;;;4955726;28;45251;-59
2022/04/04 11:41:56;;;;;;;;;;;24.10;37.10;;;;;;4957831;28;45277;-60
2022/04/04 11:44:25;;;;;;;;;;;24.20;37.00;;;;;;4956034;28;44852;-61
2022/04/04 11:47:20;;;;;;;;;;;24.20;37.20;;;;;;4940626;28;45376;-61
2022/04/04 11:49:46;;;;;;;;;;;24.20;37.10;;;;;;4949683;28;44664;-61
2022/04/04 11:52:16;;;;;;;;;;;24.30;37.00;;;;;;4953069;28;45196;-61
2022/04/04 11:54:42;;;;;;;;;;;24.30;37.10;;;;;;4953577;28;44852;-63
2022/04/04 11:57:08;;;;;;;;;;;24.40;37.10;;;;;;4954121;28;47011;-61
2022/04/04 11:59:37;;;;;;;;;;;24.40;37.50;;;;;;4954581;28;45186;-63
2022/04/04 12:02:07;;;;;;;;;;;24.40;37.10;;;;;;4938132;28;45409;-61
2022/04/04 12:04:33;;;;;;;;;;;24.40;37.00;;;;;;4951011;28;44876;-61
2022/04/04 12:07:00;;;;;;;;;;;24.40;37.00;;;;;;4954172;28;46170;-61
2022/04/04 12:09:26;;;;;;;;;;;24.50;36.90;;;;;;4951113;28;45459;-61
2022/04/04 12:12:01;;;;;;;;;;;24.50;37.00;;;;;;4954865;28;45440;-62
2022/04/04 12:14:37;;;;;;;;;;;24.50;36.90;;;;;;4960721;28;45703;-62
2022/04/04 12:17:06;;;;;;;;;;;24.50;37.00;;;;;;4954298;28;47043;-61
2022/04/04 12:19:31;;;;;;;;;;;24.60;37.00;;;;;;4953625;28;45266;-61
2022/04/04 12:21:59;;;;;;;;;;;24.60;37.00;;;;;;4956321;28;45439;-60
2022/04/04 12:27:13;;;;;;;;;;;24.60;36.90;;;;;;4952082;28;45067;-61
2022/04/04 12:29:42;;;;;;;;;;;24.60;37.00;;;;;;4953065;28;45309;-61
2022/04/04 12:32:18;;;;;;;;;;;24.60;37.00;;;;;;4953292;28;44726;-62
2022/04/04 12:34:53;;;;;;;;;;;24.70;37.00;;;;;;4938675;28;45375;-62
2022/04/04 12:37:18;;;;;;;;;;;24.70;37.00;;;;;;4953275;28;46024;-60
2022/04/04 12:39:44;;;;;;;;;;;24.70;36.90;;;;;;4953826;28;45480;-63
2022/04/04 12:42:09;;;;;;;;;;;24.70;36.90;;;;;;4952558;28;45318;-60
2022/04/04 12:44:35;;;;;;;;;;;24.80;36.90;;;;;;4954638;28;45220;-61
2022/04/04 12:47:08;;;;;;;;;;;24.80;37.00;;;;;;4953146;28;46874;-61
2022/04/04 12:49:34;;;;;;;;;;;24.80;37.00;;;;;;4952258;28;45588;-61
2022/04/04 12:52:01;;;;;;;;;;;24.80;36.90;;;;;;4957619;28;44744;-59
2022/04/04 12:54:30;;;;;;;;;;;24.80;36.90;;;;;;4955074;28;45504;-62
2022/04/04 12:56:56;;;;;;;;;;;24.80;36.90;;;;;;4953523;28;45971;-63
2022/04/04 12:59:25;;;;;;;;;;;24.90;36.80;;;;;;4954171;28;45179;-61
2022/04/04 13:02:04;;;;;;;;;;;24.90;36.90;;;;;;4951801;28;45481;-62
2022/04/04 13:04:30;;;;;;;;;;;24.90;37.00;;;;;;4953459;28;46477;-61
2022/04/04 13:06:57;;;;;;;;;;;24.90;36.90;;;;;;4952161;28;45307;-59
2022/04/04 13:09:28;;;;;;;;;;;24.90;36.90;;;;;;4951641;28;44711;-58
2022/04/04 13:11:54;;;;;;;;;;;24.90;36.90;;;;;;4954950;28;45413;-59
2022/04/04 13:14:22;;;;;;;;;;;25.00;36.90;;;;;;4954725;28;44685;-61
2022/04/04 13:16:56;;;;;;;;;;;24.90;36.90;;;;;;4956990;28;46113;-62
2022/04/04 13:19:23;;;;;;;;;;;25.00;36.80;;;;;;4958362;28;44688;-60
2022/04/04 13:21:48;;;;;;;;;;;25.00;37.00;;;;;;4946619;28;45333;-58
2022/04/04 13:24:14;;;;;;;;;;;25.00;37.00;;;;;;4966829;28;45206;-61
2022/04/04 13:26:39;;;;;;;;;;;25.00;36.80;;;;;;4963045;28;46134;-61
2022/04/04 13:29:07;;;;;;;;;;;25.10;37.00;;;;;;4953864;28;44962;-61
2022/04/04 13:31:33;;;;;;;;;;;25.10;37.00;;;;;;4956858;28;45270;-61
2022/04/04 13:33:58;;;;;;;;;;;25.00;36.90;;;;;;4951817;28;47609;-57
2022/04/04 13:36:24;;;;;;;;;;;25.00;36.90;;;;;;4956127;28;46049;-59
2022/04/04 13:38:53;;;;;;;;;;;25.00;36.90;;;;;;4939937;28;45444;-60
2022/04/04 13:41:25;;;;;;;;;;;25.10;36.90;;;;;;4951758;28;45546;-61
2022/04/04 13:43:51;;;;;;;;;;;25.10;36.80;;;;;;4953127;28;45313;-60
2022/04/04 13:46:20;;;;;;;;;;;25.10;37.00;;;;;;4938006;28;46147;-57
2022/04/04 13:48:47;;;;;;;;;;;25.10;37.00;;;;;;4954055;28;45089;-60
2022/04/04 13:51:18;;;;;;;;;;;25.10;37.00;;;;;;4952773;28;45733;-61
2022/04/04 13:53:44;;;;;;;;;;;25.10;37.00;;;;;;4952599;28;44705;-57
2022/04/04 13:56:10;;;;;;;;;;;25.10;37.00;;;;;;4950470;28;45451;-60
2022/04/04 13:58:36;;;;;;;;;;;25.10;37.00;;;;;;4959677;28;45414;-60
2022/04/04 14:01:02;;;;;;;;;;;25.20;36.90;;;;;;4957490;28;45277;-59
2022/04/04 14:03:28;;;;;;;;;;;25.10;36.90;;;;;;4954503;28;46011;-61
2022/04/04 14:05:56;;;;;;;;;;;25.10;37.00;;;;;;4955022;28;45080;-60
2022/04/04 14:08:22;;;;;;;;;;;25.10;36.90;;;;;;4955852;28;45214;-58
2022/04/04 14:10:47;;;;;;;;;;;25.20;37.00;;;;;;4938744;28;44937;-60
2022/04/04 14:13:22;;;;;;;;;;;25.20;37.10;;;;;;4954416;28;45304;-60
2022/04/04 14:15:49;;;;;;;;;;;25.20;36.90;;;;;;4956449;28;46003;-61
2022/04/04 14:18:24;;;;;;;;;;;25.20;36.90;;;;;;4951346;28;45327;-61
2022/04/04 14:20:49;;;;;;;;;;;25.20;37.10;;;;;;4954373;28;45506;-62
2022/04/04 14:23:16;;;;;;;;;;;25.20;37.00;;;;;;4955777;28;45345;-61
2022/04/04 14:25:41;;;;;;;;;;;25.20;37.00;;;;;;4951260;28;46177;-60
2022/04/04 14:28:07;;;;;;;;;;;25.20;37.10;;;;;;4945622;28;45167;-59
2022/04/04 14:30:32;;;;;;;;;;;25.20;37.00;;;;;;4948733;28;45231;-59
2022/04/04 14:33:01;;;;;;;;;;;25.20;37.00;;;;;;4954904;28;45215;-61
2022/04/04 14:35:26;;;;;;;;;;;25.20;37.00;;;;;;4954860;28;46909;-62
2022/04/04 14:37:54;;;;;;;;;;;25.30;37.00;;;;;;4953132;28;45430;-60
2022/04/04 14:40:20;;;;;;;;;;;25.20;37.10;;;;;;4951850;28;45460;-60
2022/04/04 14:42:45;;;;;;;;;;;25.20;36.90;;;;;;4952581;28;45616;-61
2022/04/04 14:45:14;;;;;;;;;;;25.30;37.10;;;;;;4951890;28;46125;-61
2022/04/04 14:47:39;;;;;;;;;;;25.20;37.00;;;;;;4953460;28;45319;-62
2022/04/04 14:50:07;;;;;;;0.10;0.10;;;25.20;37.00;;;;;;4952653;28;45414;-61
2022/04/04 14:52:42;;;;;;;0.25;0.20;;;25.30;37.60;;;;;;4951810;28;45420;-58
2022/04/04 14:55:17;;;;;;;1.30;0.30;;;25.30;37.50;;;;;;4931901;28;46118;-60
2022/04/04 14:57:43;;;;;;;2.72;0.28;;;25.30;37.60;;;;;;4954030;28;45599;-61
2022/04/04 15:00:14;;;;;;;0.55;0.20;;;25.30;37.50;;;;;;4947625;28;44824;-59
2022/04/04 15:02:40;;;;;;;0.85;0.17;;;25.30;37.60;;;;;;4949356;28;44828;-61
2022/04/04 15:05:09;;;;;;;0.10;0.10;;;25.30;37.70;;;;;;4949339;28;48178;-62
2022/04/04 15:07:40;;;;;;;0.20;0.20;;;25.30;37.50;;;;;;4950517;28;45138;-61
2022/04/04 15:10:06;;;;;;;0.20;0.20;;;25.30;37.70;;;;;;4950145;28;45293;-62
2022/04/04 15:12:37;;;;;;;0.38;0.20;;;25.30;37.70;;;;;;4946495;28;45847;-61
2022/04/04 15:15:02;;;;;;;0.55;0.15;;;25.30;37.50;;;;;;4949827;28;46898;-59
2022/04/04 15:17:29;;;;;;;0.10;0.10;;;25.30;37.60;;;;;;4948266;28;48029;-61
2022/04/04 15:19:54;;;;;;;1.60;0.40;;;25.30;37.60;;;;;;4961843;28;44765;-61
2022/04/04 15:22:21;;;;;;;0.60;0.20;;;25.30;37.70;;;;;;4951842;28;45640;-59
2022/04/04 15:24:47;;;;;;;0.13;0.13;;;25.30;37.70;;;;;;4945302;28;46211;-61
2022/04/04 15:27:14;;;;;;;0.20;0.20;;;25.30;37.60;;;;;;4951013;28;45995;-59
2022/04/04 15:29:40;;;;;;;0.20;0.20;;;25.30;37.60;;;;;;4948421;28;45317;-61
2022/04/04 15:32:06;;;;;;;2.58;0.17;;;25.30;37.70;;;;;;4949815;28;45264;-62
2022/04/04 15:34:34;;;;;;;0.47;0.20;;;25.40;37.60;;;;;;4933409;28;45308;-63
2022/04/04 15:37:02;;;;;;;0.20;0.20;;;25.30;37.60;;;;;;4947496;28;45517;-60
2022/04/04 15:39:30;;;;;;;2.50;0.10;;;25.30;37.70;;;;;;4947992;28;45633;-62
2022/04/04 15:41:56;;;;;;;0.88;0.20;;;25.30;37.60;;;;;;4949470;28;44940;-59
2022/04/04 15:44:25;;;;;;;0.30;0.20;;;25.30;37.70;;;;;;4946248;28;45870;-61
2022/04/04 15:46:51;;;;;;;0.50;0.30;;;25.30;37.50;;;;;;4945917;28;44811;-60
2022/04/04 15:49:20;;;;;;;2.13;0.20;;;25.30;37.60;;;;;;4948803;28;45068;-57
2022/04/04 15:51:46;;;;;;;0.20;0.10;;;25.30;37.60;;;;;;4946848;28;45572;-58
2022/04/04 15:54:12;;;;;;;0.85;0.22;;;25.20;37.50;;;;;;4941518;28;45240;-60
2022/04/04 15:56:44;;;;;;;0.68;0.20;;;25.10;37.60;;;;;;4948715;28;45254;-59
2022/04/04 15:59:13;;;;;;;0.40;0.20;;;25.00;37.70;;;;;;4949184;28;45231;-59
2022/04/04 16:01:47;;;;;;;0.65;0.30;;;24.90;37.80;;;;;;4944953;28;45491;-57
2022/04/04 16:04:13;;;;;;;0.20;0.20;;;24.80;37.90;;;;;;4928487;28;45098;-59
2022/04/04 16:06:41;;;;;;;0.30;0.30;;;24.70;38.00;;;;;;4945539;28;45606;-58
2022/04/04 16:09:07;;;;;;;0.20;0.20;;;24.60;38.10;;;;;;4949844;28;45570;-59
2022/04/04 16:11:36;;;;;;;0.70;0.30;;;24.50;38.20;;;;;;4949809;28;45140;-58
2022/04/04 16:14:02;;;;;;;0.10;0.10;;;24.40;38.40;;;;;;4948851;28;46806;-60
2022/04/04 16:16:28;;;;;;;0.20;0.20;;;24.30;38.40;;;;;;4946864;28;47728;-59
2022/04/04 16:18:54;;;;;;;0.20;0.20;;;24.20;38.50;;;;;;4949879;28;45574;-59
2022/04/04 16:21:21;;;;;;;0.30;0.30;;;24.10;38.70;;;;;;4935548;28;44761;-58
2022/04/04 16:23:48;;;;;;;0.28;0.28;;;24.00;38.90;;;;;;4946053;28;46249;-58